• Join FlightAware (Why Join?)
  • Login
  • US Flag 
11:19PM EDT


 

Airport Tracker/Info


-or-


 

Live Flight TrackerFlight Track Log ✈ UAL502 ✈ 27-Jan-2014 ✈ KSFO - KJFK

Flight Track Log - Related Links

Times and Time Zones

All times are in EST time to prevent confusion due to time zone crossing. See the UAL502 flight status page for this flight to view local times or setup timezone preferences in your user account.

Time Position Orientation Groundspeed Altitude Reporting Facility
EST Latitude Longitude Course Direction KTS MPH feet Rate Location/Type
07:47PM 37.6333 -122.3500 65° Northeast 172 198 1,100  Level Northern Cal TRACON
07:48PM 37.6833 -122.3000 38° Northeast 225 259 3,700 2,760 Climbing Northern Cal TRACON
07:49PM 37.7167 -122.2333 58° Northeast 264 304 6,700 2,640 Climbing Northern Cal TRACON
07:50PM 37.6558 -122.2270 72° East  Level FlightAware Approximate
07:51PM 37.7065 -122.0671 63° Northeast  Level FlightAware Approximate
07:51PM 37.7931 -122.0075 67° East 333 383 12,500  Level Oakland Center
07:52PM 37.7656 -121.9115 65° Northeast  Level FlightAware Approximate
07:52PM 37.8261 -121.8847 71° East 366 421 15,100  Level Oakland Center
07:53PM 37.8631 -121.7575 70° East 383 441 17,400 2,220 Climbing Oakland Center
07:54PM 37.9042 -121.6139 70° East 402 463 19,700 1,980 Climbing Oakland Center
07:55PM 37.9433 -121.4739 70° East 418 481 21,500 1,560 Climbing Oakland Center
07:56PM 37.9839 -121.3300 70° East 432 497 22,900 1,320 Climbing Oakland Center
07:57PM 38.0244 -121.1814 71° East 445 512 24,300 1,560 Climbing Oakland Center
07:58PM 38.0653 -121.0292 71° East 460 529 26,100 1,680 Climbing Oakland Center
07:59PM 38.0931 -120.8669 78° East 475 547 27,800 1,680 Climbing Oakland Center
08:00PM 38.1183 -120.6664 81° East 483 556 29,600 1,620 Climbing Oakland Center
08:01PM 38.1414 -120.4939 80° East 496 571 31,100 1,620 Climbing Oakland Center
08:02PM 38.1628 -120.3250 81° East 490 564 32,900 1,620 Climbing Oakland Center
08:03PM 38.1844 -120.1561 81° East 487 560 34,400 1,440 Climbing Oakland Center
08:04PM 38.2058 -119.9861 81° East 487 560 35,900 1,320 Climbing Oakland Center
08:05PM 38.2267 -119.8200 81° East 478 550 37,200 1,140 Climbing Oakland Center
08:07PM 38.2494 -119.6550 80° East 475 547 38,300 840 Climbing Oakland Center
08:08PM 38.2692 -119.4900 81° East 473 544 39,000 300 Climbing Oakland Center
08:09PM 38.2931 -119.3047 81° East 472 543 39,000  Level Oakland Center
08:10PM 38.3133 -119.1408 81° East 471 542 39,000  Level Oakland Center
08:11PM 38.3333 -118.9744 81° East 476 548 39,000  Level Oakland Center
08:12PM 38.3533 -118.8075 81° East 479 551 39,000  Level Oakland Center
08:13PM 38.3733 -118.6389 81° East 483 556 39,000  Level Oakland Center
08:14PM 38.3936 -118.4708 81° East 483 556 39,000  Level Oakland Center
08:15PM 38.4106 -118.3036 83° East 480 552 39,000  Level Oakland Center
08:16PM 38.4292 -118.1369 82° East 477 549 39,000  Level Oakland Center
08:17PM 38.4494 -117.9583 82° East 476 548 39,000  Level Oakland Center
08:18PM 38.4683 -117.7892 82° East 477 549 39,000  Level Oakland Center
08:19PM 38.4850 -117.6225 83° East 473 544 39,000  Level Oakland Center
08:20PM 38.5033 -117.4567 82° East 468 539 39,000  Level Oakland Center
08:21PM 38.5208 -117.2931 82° East 463 533 39,000  Level Oakland Center
08:22PM 38.5306 -117.1242 86° East 469 540 39,000  Level Oakland Center
08:22PM 38.5347 -117.0231 87° East 470 541 39,000  Level Salt Lake Center
08:23PM 38.5414 -116.8550 87° East 471 542 39,000  Level Salt Lake Center
08:24PM 38.5461 -116.7883 85° East 470 541 39,000  Level Oakland Center
08:25PM 38.5539 -116.6200 87° East 471 542 39,000  Level Oakland Center
08:25PM 38.5578 -116.5203 87° East 469 540 39,000  Level Salt Lake Center
08:26PM 38.5653 -116.3528 87° East 471 542 39,000  Level Salt Lake Center
08:27PM 38.5722 -116.1878 87° East 466 536 39,000  Level Salt Lake Center
08:28PM 38.5800 -116.0261 86° East 459 528 39,000  Level Salt Lake Center
08:29PM 38.5864 -115.8636 87° East 457 526 39,000  Level Salt Lake Center
08:30PM 38.5944 -115.6689 87° East 457 526 39,000  Level Salt Lake Center
08:32PM 38.6003 -115.5050 87° East 461 531 39,000  Level Salt Lake Center
08:33PM 38.6064 -115.3492 87° East 459 528 39,000  Level Salt Lake Center
08:34PM 38.6136 -115.1825 87° East 469 540 39,000  Level Salt Lake Center
08:35PM 38.6192 -115.0175 87° East 467 537 39,000  Level Salt Lake Center
08:36PM 38.6244 -114.8517 88° East 467 537 39,000  Level Salt Lake Center
08:37PM 38.6289 -114.6850 88° East 469 540 39,000  Level Salt Lake Center
08:38PM 38.6356 -114.4867 87° East 468 539 39,000  Level Salt Lake Center
08:39PM 38.6400 -114.3200 88° East 469 540 39,000  Level Salt Lake Center
08:40PM 38.6447 -114.1539 88° East 468 539 39,000  Level Salt Lake Center
08:41PM 38.6489 -113.9872 88° East 468 539 39,000  Level Salt Lake Center
08:42PM 38.6525 -113.8217 88° East 467 537 39,000  Level Salt Lake Center
08:43PM 38.6575 -113.6556 88° East 467 537 39,000  Level Salt Lake Center
08:44PM 38.6603 -113.4911 89° East 464 534 39,000  Level Salt Lake Center
08:45PM 38.6644 -113.3228 88° East 470 541 39,000  Level Salt Lake Center
08:46PM 38.6664 -113.1556 89° East 471 542 39,000  Level Salt Lake Center
08:47PM 38.6697 -112.9519 89° East 476 548 39,000  Level Salt Lake Center
08:48PM 38.6719 -112.7839 89° East 473 544 39,000  Level Salt Lake Center
08:49PM 38.6750 -112.6169 89° East 471 542 39,000  Level Salt Lake Center
08:50PM 38.6769 -112.4483 89° East 472 543 39,000  Level Salt Lake Center
08:51PM 38.6783 -112.2808 89° East 472 543 39,000  Level Salt Lake Center
08:52PM 38.6806 -112.1117 89° East 474 545 39,000  Level Salt Lake Center
08:53PM 38.6819 -111.9442 89° East 471 542 39,000  Level Salt Lake Center
08:54PM 38.6828 -111.7753 90° East 474 545 39,000  Level Salt Lake Center
08:55PM 38.6844 -111.6086 89° East 470 541 39,000 300 Level Salt Lake Center
08:57PM 38.6850 -111.2381 90° East 474 545 40,000 540 Climbing Salt Lake Center
08:58PM 38.6858 -111.0722 90° East 468 539 40,800 480 Climbing Salt Lake Center
08:59PM 38.6847 -110.8981 90° East 466 536 41,000 60 Climbing Salt Lake Center
09:00PM 38.6833 -110.7369 91° East 472 543 41,000  Level Salt Lake Center
09:01PM 38.6825 -110.5767 90° East 472 543 41,000  Level Salt Lake Center
09:02PM 38.6819 -110.3894 90° East 472 543 41,000  Level Salt Lake Center
09:03PM 38.6814 -110.2306 90° East 470 541 41,000  Level Salt Lake Center
09:04PM 38.6800 -110.0450 90° East 468 539 41,000  Level Salt Lake Center
09:05PM 38.6778 -109.8844 91° East 471 542 41,000  Level Salt Lake Center
09:06PM 38.6719 -109.6956 92° East 475 547 41,000  Level Salt Lake Center
09:07PM 38.6658 -109.5356 93° East 473 544 41,000  Level Salt Lake Center
09:08PM 38.6608 -109.3744 92° East 474 545 41,000  Level Salt Lake Center
09:09PM 38.6539 -109.1864 93° East 475 547 41,000  Level Salt Lake Center
09:10PM 38.6481 -109.0256 93° East 475 547 41,000  Level Salt Lake Center
09:11PM 38.6406 -108.8361 93° East 478 550 41,000  Level Salt Lake Center
09:13PM 38.6317 -108.5828 92° East 489 563 41,000  Level Denver Center
09:14PM 38.6244 -108.4167 93° East 491 565 41,000  Level Denver Center
09:15PM 38.6175 -108.2489 93° East 495 570 41,000  Level Denver Center
09:16PM 38.6097 -108.0506 93° East 500 575 41,000  Level Denver Center
09:17PM 38.6011 -107.8811 94° East 502 578 41,000  Level Denver Center
09:18PM 38.5914 -107.6803 93° East 506 582 41,000  Level Denver Center
09:19PM 38.5844 -107.5056 93° East 513 590 41,000  Level Denver Center
09:20PM 38.5731 -107.3017 94° East 516 594 41,000  Level Denver Center
09:21PM 38.5639 -107.1297 94° East 518 596 41,000  Level Denver Center
09:22PM 38.5544 -106.9444 94° East 523 602 41,000  Level Denver Center
09:23PM 38.5431 -106.7608 94° East 521 600 41,000  Level Denver Center
09:24PM 38.5336 -106.5769 94° East 521 600 41,000  Level Denver Center
09:25PM 38.5231 -106.3958 94° East 514 592 41,000  Level Denver Center
09:26PM 38.5103 -106.1769 94° East 515 593 41,000  Level Denver Center
09:27PM 38.5000 -106.0006 94° East 511 588 41,000  Level Denver Center
09:28PM 38.4944 -105.7994 92° East 507 583 41,000  Level Denver Center
09:29PM 38.4919 -105.6183 91° East 506 582 41,000  Level Denver Center
09:30PM 38.4869 -105.4431 92° East 501 577 41,000  Level Denver Center
09:31PM 38.4822 -105.2636 92° East 506 582 41,000  Level Denver Center
09:32PM 38.4769 -105.0869 92° East 502 578 41,000  Level Denver Center
09:33PM 38.4733 -104.9431 92° East 507 583 41,000  Level Denver Center
09:34PM 38.4675 -104.7300 92° East 506 582 41,000  Level Denver Center
09:35PM 38.4603 -104.5114 92° East 514 592 41,000  Level Denver Center
09:37PM 38.4539 -104.3283 92° East 519 597 41,000  Level Denver Center
09:38PM 38.4472 -104.1431 93° East 525 604 41,000  Level Denver Center
09:39PM 38.4389 -103.9422 93° East 526 605 41,000  Level Denver Center
09:40PM 38.4314 -103.7628 93° East 528 608 41,000  Level Denver Center
09:41PM 38.4231 -103.5831 93° East 529 609 41,000  Level Denver Center
09:42PM 38.4161 -103.4083 93° East 530 610 41,000 -180 Level Denver Center
09:43PM 38.4086 -103.1989 93° East 532 612 40,700 -900 Descending Denver Center
09:44PM 38.3967 -102.9858 94° East 540 621 39,200 -840 Descending Denver Center
09:45PM 38.3889 -102.8008 93° East 545 627 39,000 -120 Descending Denver Center
09:46PM 38.3778 -102.5869 94° East 542 624 39,000  Level Denver Center
09:47PM 38.3692 -102.4033 93° East 543 625 39,000  Level Denver Center
09:48PM 38.3558 -102.1869 94° East 548 631 39,000  Level Denver Center
09:49PM 38.3467 -101.9997 94° East 552 635 39,000  Level Denver Center
09:50PM 38.3439 -101.8156 91° East 544 626 39,000  Level Denver Center
09:51PM 38.3789 -101.6036 78° East 544 626 39,000  Level Denver Center
09:52PM 38.4131 -101.4244 76° East 543 625 39,000  Level Denver Center
09:53PM 38.4531 -101.2153 76° East 542 624 39,000  Level Denver Center
09:54PM 38.4864 -101.0347 77° East 544 626 39,000  Level Denver Center
09:55PM 38.5183 -100.8542 77° East 543 625 39,000  Level Denver Center
09:56PM 38.5575 -100.6414 77° East 547 629 39,000  Level Denver Center
09:57PM 38.5900 -100.4611 77° East 544 626 39,000  Level Denver Center
09:58PM 38.6308 -100.2161 78° East 543 625 39,000  Level Kansas City Center
09:59PM 38.6622 -100.0356 77° East 543 625 39,000  Level Kansas City Center
10:00PM 38.6931 -99.8556 78° East 541 623 39,000  Level Kansas City Center
10:01PM 38.7297 -99.6439 77° East 544 626 39,000  Level Kansas City Center
10:02PM 38.7558 -99.4878 78° East 544 626 39,000  Level Kansas City Center
10:03PM 38.7950 -99.2606 77° East 545 627 39,000  Level Kansas City Center
10:04PM 38.8261 -99.0711 78° East 543 625 39,000  Level Kansas City Center
10:05PM 38.8575 -98.8794 78° East 549 632 39,000  Level Kansas City Center
10:06PM 38.8897 -98.6867 78° East 550 633 39,000  Level Kansas City Center
10:07PM 38.9214 -98.4953 78° East 549 632 39,000  Level Kansas City Center
10:08PM 38.9522 -98.3022 78° East 550 633 39,000  Level Kansas City Center
10:09PM 38.9825 -98.1094 79° East 550 633 39,000  Level Kansas City Center
10:10PM 39.0086 -97.9150 80° East 550 633 39,000  Level Kansas City Center
10:11PM 39.0317 -97.6989 82° East 552 635 39,000  Level Kansas City Center
10:13PM 39.0517 -97.5108 82° East 554 638 39,000  Level Kansas City Center
10:14PM 39.0717 -97.3219 82° East 555 639 39,000  Level Kansas City Center
10:15PM 39.0939 -97.1025 82° East 554 638 39,000  Level Kansas City Center
10:16PM 39.1142 -96.9131 82° East 557 641 39,000  Level Kansas City Center
10:17PM 39.1325 -96.7236 83° East 557 641 39,000  Level Kansas City Center
10:18PM 39.1550 -96.5011 83° East 560 644 39,000  Level Kansas City Center
10:19PM 39.1722 -96.3086 83° East 564 649 39,000  Level Kansas City Center
10:20PM 39.1903 -96.1181 83° East 562 647 39,000  Level Kansas City Center
10:21PM 39.2106 -95.8958 83° East 560 644 39,000  Level Kansas City Center
10:22PM 39.2278 -95.7058 83° East 557 641 39,000  Level Kansas City Center
10:23PM 39.2467 -95.4800 84° East 564 649 39,000  Level Kansas City Center
10:24PM 39.2639 -95.2861 83° East 567 652 39,000  Level Kansas City Center
10:25PM 39.2806 -95.0836 84° East 558 642 39,000  Level Kansas City Center
10:26PM 39.2975 -94.8903 83° East 563 648 39,000  Level Kansas City Center
10:27PM 39.3347 -94.7058 75° East 557 641 39,000  Level Kansas City Center
10:28PM 39.3847 -94.4922 73° East 557 641 39,000  Level Kansas City Center
10:29PM 39.4281 -94.3081 73° East 559 643 39,000  Level Kansas City Center
10:30PM 39.4775 -94.0925 73° East 560 644 39,000  Level Kansas City Center
10:31PM 39.5103 -93.9053 77° East 558 642 39,000  Level Kansas City Center
10:32PM 39.5267 -93.7081 84° East 563 648 39,000  Level Kansas City Center
10:33PM 39.5486 -93.5078 82° East 564 649 39,000  Level Kansas City Center
10:34PM 39.5678 -93.3092 83° East 561 646 39,000  Level Kansas City Center
10:35PM 39.5867 -93.1089 83° East 563 648 39,000  Level Kansas City Center
10:36PM 39.6022 -92.9075 84° East 567 652 39,000  Level Kansas City Center
10:37PM 39.6192 -92.7050 84° East 569 655 39,000  Level Kansas City Center
10:38PM 39.6397 -92.4681 83° East 562 647 39,000  Level Kansas City Center
10:39PM 39.6558 -92.2689 84° East 562 647 39,000  Level Kansas City Center
10:40PM 39.6714 -92.0689 84° East 562 647 39,000  Level Kansas City Center
10:41PM 39.6886 -91.8656 84° East 570 656 39,000  Level Kansas City Center
10:42PM 39.7042 -91.6636 84° East 569 655 39,000  Level Kansas City Center
10:43PM 39.7192 -91.4622 84° East 566 651 39,000  Level Kansas City Center
10:44PM 39.7353 -91.2386 85° East 565 650 39,000  Level Kansas City Center
10:45PM 39.7503 -91.0344 84° East 567 652 39,000  Level Kansas City Center
10:46PM 39.7636 -90.8447 85° East 571 657 39,000  Level Kansas City Center
10:47PM 39.7786 -90.6425 84° East 568 654 39,000  Level Kansas City Center
10:48PM 39.7917 -90.4397 85° East 566 651 39,000  Level Kansas City Center
10:49PM 39.8053 -90.2356 85° East 568 654 39,000  Level Kansas City Center
10:50PM 39.8211 -89.9914 85° East 569 655 39,000  Level Kansas City Center
10:51PM 39.8339 -89.7883 85° East 568 654 39,000  Level Kansas City Center
10:52PM 39.8414 -89.5847 87° East 568 654 39,000  Level Kansas City Center
10:53PM 39.8417 -89.3811 90° East 567 652 39,000  Level Kansas City Center
10:54PM 39.8425 -89.1756 90° East 570 656 39,000  Level Kansas City Center
10:55PM 39.8439 -88.9697 89° East 571 657 39,000  Level Kansas City Center
10:56PM 39.8433 -88.7644 90° East 571 657 39,000  Level Kansas City Center
10:57PM 39.8436 -88.5594 90° East 570 656 39,000  Level Kansas City Center
10:58PM 39.8436 -88.3528 90° East 571 657 39,000  Level Kansas City Center
10:59PM 39.8419 -88.1458 91° East 574 661 39,000  Level Kansas City Center
11:00PM 39.8389 -87.9406 91° East 571 657 39,000  Level Kansas City Center
11:01PM 39.8350 -87.6983 91° East 574 661 39,000  Level Indianapolis Center
11:02PM 39.8342 -87.4908 90° East 574 661 39,000  Level Indianapolis Center
11:03PM 39.8414 -87.4083 83° East 573 659 39,000  Level Indianapolis Center
11:04PM 39.8914 -87.2114 72° East 572 658 39,000  Level Indianapolis Center
11:05PM 39.9567 -87.0236 66° East 570 656 39,000  Level Indianapolis Center
11:06PM 40.0211 -86.8344 66° East 569 655 39,000  Level Indianapolis Center
11:07PM 40.0847 -86.6444 66° East 570 656 39,000  Level Indianapolis Center
11:08PM 40.1492 -86.4528 66° East 571 657 39,000  Level Indianapolis Center
11:09PM 40.2081 -86.2586 68° East 571 657 39,000  Level Indianapolis Center
11:10PM 40.2692 -86.0661 67° East 571 657 39,000  Level Indianapolis Center
11:11PM 40.3303 -85.8744 67° East 571 657 39,000  Level Indianapolis Center
11:12PM 40.4014 -85.6431 68° East 569 655 39,000  Level Chicago Center
11:13PM 40.4611 -85.4522 68° East 568 654 39,000  Level Chicago Center
11:14PM 40.5211 -85.2586 68° East 572 658 39,000  Level Chicago Center
11:15PM 40.5675 -85.1050 68° East 572 658 39,000  Level Indianapolis Center
11:16PM 40.6381 -84.8736 68° East 569 655 39,000  Level Chicago Center
11:17PM 40.6972 -84.6769 68° East 572 658 39,000  Level Chicago Center
11:18PM 40.7558 -84.4825 68° East 574 661 39,000  Level Chicago Center
11:19PM 40.8133 -84.2900 68° East 573 659 39,000  Level Chicago Center
11:20PM 40.8708 -84.0944 69° East 572 658 39,000  Level Chicago Center
11:21PM 40.9269 -83.9006 69° East 572 658 39,000  Level Chicago Center
11:22PM 40.9686 -83.6981 75° East 575 662 39,000  Level Chicago Center
11:23PM 41.0083 -83.4644 77° East 574 661 39,000  Level Cleveland Center
11:24PM 41.0456 -83.2578 77° East 574 661 39,000  Level Cleveland Center
11:25PM 41.0839 -83.0589 76° East 574 661 39,000  Level Cleveland Center
11:26PM 41.1219 -82.8522 76° East 574 661 39,000  Level Cleveland Center
11:27PM 41.1583 -82.6442 77° East 574 661 39,000  Level Cleveland Center
11:28PM 41.1953 -82.4347 77° East 576 663 39,000  Level Cleveland Center
11:29PM 41.2311 -82.2253 77° East 577 664 39,000  Level Cleveland Center
11:30PM 41.2639 -82.0294 77° East 577 664 39,000  Level Cleveland Center
11:31PM 41.3028 -81.7789 78° East 577 664 39,000  Level Cleveland Center
11:32PM 41.3353 -81.5722 78° East 576 663 39,000  Level Cleveland Center
11:33PM 41.3658 -81.3708 79° East 575 662 39,000  Level Cleveland Center
11:34PM 41.3989 -81.1581 78° East 576 663 39,000  Level Cleveland Center
11:35PM 41.4322 -80.9450 78° East 582 670 39,000  Level Cleveland Center
11:36PM 41.4672 -80.7311 78° East 582 670 39,000  Level Cleveland Center
11:37PM 41.4992 -80.5181 79° East 582 670 39,000  Level Cleveland Center
11:38PM 41.5303 -80.3050 79° East 582 670 39,000  Level Cleveland Center
11:39PM 41.5622 -80.0900 79° East 586 674 39,000  Level Cleveland Center
11:40PM 41.5919 -79.8864 79° East 586 674 39,000  Level Cleveland Center
11:41PM 41.6211 -79.6731 80° East 586 674 39,000  Level Cleveland Center
11:42PM 41.6517 -79.4583 79° East 586 674 39,000  Level Cleveland Center
11:43PM 41.6806 -79.2494 79° East 586 674 39,000  Level Cleveland Center
11:44PM 41.7097 -79.0347 80° East 586 674 39,000  Level Cleveland Center
11:45PM 41.7394 -78.8114 80° East 587 676 39,000  Level Cleveland Center
11:46PM 41.7681 -78.5956 80° East 587 676 39,000  Level Cleveland Center
11:47PM 41.7747 -78.3814 88° East 571 657 39,000  Level Cleveland Center
11:48PM 41.7586 -78.1697 96° East 568 654 39,000  Level Cleveland Center
11:49PM 41.7475 -77.9575 94° East 569 655 39,000  Level Cleveland Center
11:50PM 41.7319 -77.7447 96° East 570 656 39,000  Level Cleveland Center
11:51PM 41.7156 -77.5486 96° East 571 657 39,000  Level New York Center
11:52PM 41.6942 -77.3353 98° East 571 657 39,000 -360 Level New York Center
11:53PM 41.6678 -77.1300 100° East 565 650 38,300 -1,260 Descending New York Center
11:54PM 41.6200 -76.9311 108° East 565 650 36,500 -2,100 Descending New York Center
11:55PM 41.5600 -76.7178 111° Southeast 560 644 34,100 -2,100 Descending New York Center
11:56PM 41.5103 -76.5414 111° Southeast 555 639 32,400 -1,860 Descending New York Center
11:57PM 41.4500 -76.3231 110° East 562 647 30,400 -2,100 Descending New York Center
11:58PM 41.3967 -76.1250 110° East 562 647 28,300 -2,040 Descending New York Center
11:59PM 41.3422 -75.9383 111° Southeast 555 639 26,400 -1,800 Descending New York Center
12:00AM 41.2936 -75.7608 110° East 537 618 24,800 -1,380 Descending New York Center
12:01AM 41.2383 -75.5911 113° Southeast 511 588 23,700 -900 Descending New York Center
12:02AM 41.1842 -75.4300 114° Southeast 489 563 23,000 -480 Descending New York Center
12:03AM 41.1322 -75.2694 113° Southeast 483 556 22,800 -1,260 Descending New York Center
12:04AM 41.0778 -75.1117 115° Southeast 472 543 20,500 -1,920 Descending New York Center
12:05AM 41.0269 -74.9600 114° Southeast 466 536 19,000 -780 Descending New York Center
12:06AM 40.9869 -74.7925 108° East 456 525 19,000  Level New York Center
12:07AM 40.9711 -74.6406 98° East 466 536 19,000  Level New York Center
12:08AM 40.9503 -74.4469 98° East 478 550 19,000  Level New York Center
12:09AM 40.9333 -74.3500 103° East 476 548 19,000  Level New York TRACON
12:10AM 40.8667 -74.1667 116° Southeast 400 460 19,000 -240 Level New York TRACON
12:11AM 40.8000 -74.0833 137° Southeast 383 441 18,600 -1,620 Descending New York TRACON
12:12AM 40.7167 -73.9833 138° Southeast 379 436 16,000 -2,580 Descending New York TRACON
12:13AM 40.6333 -73.9000 143° Southeast 374 430 13,500 -1,980 Descending New York TRACON
12:14AM 40.5833 -73.8500 143° Southeast 331 381 12,500 -1,500 Descending New York TRACON
12:15AM 40.5000 -73.8167 163° South 242 278 10,700 -2,340 Descending New York TRACON
12:16AM 40.4333 -73.7833 159° South 265 305 7,700 -2,400 Descending New York TRACON
12:17AM 40.4000 -73.6833 114° Southeast 295 339 6,000 -1,260 Descending New York TRACON
12:18AM 40.3833 -73.6000 105° East 272 313 5,200 -1,200 Descending New York TRACON
12:19AM 40.4500 -73.5667 21° North 212 244 3,600 -1,260 Descending New York TRACON
12:20AM 40.5000 -73.5500 14° North 206 237 2,700 -840 Descending New York TRACON
12:21AM 40.5500 -73.5667 346° North 192 221 2,100 -360 Descending New York TRACON
12:22AM 40.5833 -73.6167 311° West 180 207 2,000 -120 Descending New York TRACON
12:23AM 40.6000 -73.6667 294° West 159 183 1,900 -420 Descending New York TRACON
12:24AM 40.6167 -73.7000 303° West 133 153 1,300 -720 Descending New York TRACON
12:25AM 40.6333 -73.7500 294° West 113 130 500 -780 Descending New York TRACON